Terminal Aerodrome Forecast
Issued by NWS

Home | Current Version | Previous Version | Graphics & Text | Print | Product List | Glossary On
Versions: 1 2 3 4 5 6 7 8 9 10 11 12 13 14 15 16 17
000
FTUS43 KUNR 281100
TAFGCC
TAF
KGCC 281122Z 2812/0112 32010KT P6SM SCT030
      TEMPO 2812/2814 BKN018
     FM281800 33010KT P6SM BKN030
     FM010600 27011KT P6SM SCT040=

USA.gov is the U.S. government's official web portal to all federal, state and local government web resources and services.